Time;durP1;ratioP1;P1;durP2;ratioP2;P2;SDS_P1;SDS_P2;PMS_P1;PMS_P2;Temp;Humidity;BMP_temperature;BMP_pressure;BME280_temperature;BME280_humidity;BME280_pressure;Samples;Min_cycle;Max_cycle;Signal;HPM_P1;HPM_P2
2021/11/30 00:00:40;;;;;;;;;;;;;;;;;;;;;
2021/11/30 00:03:44;;;;;;;8.65;2.50;;;5.00;99.90;;;;;;4994991;28;20122;-95
2021/11/30 00:06:35;;;;;;;4.32;2.58;;;5.00;99.90;;;;;;4966338;28;20043;-93
2021/11/30 00:16:18;;;;;;;;;;;;;;;;;;;;;
2021/11/30 00:19:38;;;;;;;;;;;;;;;;;;;;;
2021/11/30 00:23:03;;;;;;;;;;;;;;;;;;;;;
2021/11/30 00:25:43;;;;;;;11.32;4.97;;;5.00;99.90;;;;;;4809665;29;20114;-92
2021/11/30 00:28:15;;;;;;;13.70;5.13;;;4.90;99.90;;;;;;4780750;30;20049;-93
2021/11/30 00:31:23;;;;;;;;;;;;;;;;;;;;;
2021/11/30 00:36:50;;;;;;;9.55;5.65;;;4.90;99.90;;;;;;4852637;29;20034;-94
2021/11/30 00:39:50;;;;;;;11.90;6.07;;;4.90;99.90;;;;;;4870055;29;20046;-95
2021/11/30 00:43:04;;;;;;;15.20;6.50;;;4.90;99.90;;;;;;4926236;29;20062;-94
2021/11/30 00:46:31;;;;;;;;;;;;;;;;;;;;;
2021/11/30 00:49:21;;;;;;;;;;;;;;;;;;;;;
2021/11/30 00:52:16;;;;;;;;;;;;;;;;;;;;;
2021/11/30 00:54:44;;;;;;;17.83;6.60;;;4.80;99.90;;;;;;5040230;28;20104;-93
2021/11/30 01:00:40;;;;;;;10.85;5.50;;;4.80;99.90;;;;;;5005289;28;20044;-92
2021/11/30 01:03:16;;;;;;;16.13;5.25;;;4.80;99.90;;;;;;5025461;28;20120;-92
2021/11/30 01:06:28;;;;;;;;;;;;;;;;;;;;;
2021/11/30 01:13:04;;;;;;;;;;;;;;;;;;;;;
2021/11/30 01:23:29;;;;;;;9.85;4.53;;;4.80;99.90;;;;;;5024212;22;20116;-93
2021/11/30 01:26:09;;;;;;;11.30;4.85;;;4.70;99.90;;;;;;5048833;28;20062;-94
2021/11/30 01:29:23;;;;;;;10.13;4.72;;;4.80;99.90;;;;;;5045250;28;20024;-93
2021/11/30 01:32:16;;;;;;;10.77;5.00;;;4.80;99.90;;;;;;4943825;29;20044;-93
2021/11/30 01:34:53;;;;;;;;;;;;;;;;;;;;;
2021/11/30 01:37:51;;;;;;;;;;;;;;;;;;;;;
2021/11/30 01:40:36;;;;;;;10.20;5.55;;;4.50;99.90;;;;;;5044248;28;20153;-94
2021/11/30 01:43:44;;;;;;;10.85;5.50;;;4.40;99.90;;;;;;5026716;28;20600;-94
2021/11/30 01:51:31;;;;;;;16.10;6.55;;;4.10;99.90;;;;;;5042038;28;20042;-92
2021/11/30 01:54:03;;;;;;;16.10;6.18;;;4.00;99.90;;;;;;5038969;28;20029;-92
2021/11/30 01:56:33;;;;;;;17.33;7.60;;;4.00;99.90;;;;;;5022297;28;20128;-92
2021/11/30 01:59:02;;;;;;;18.10;6.53;;;4.00;99.90;;;;;;5038326;28;20030;-93
2021/11/30 02:01:38;;;;;;;;;;;;;;;;;;;;;
2021/11/30 02:04:05;;;;;;;22.20;9.45;;;3.90;99.90;;;;;;5040621;28;20443;-90
2021/11/30 02:06:31;;;;;;;22.45;9.70;;;3.90;99.90;;;;;;5011002;28;20021;-93
2021/11/30 02:08:59;;;;;;;26.38;10.98;;;3.80;99.90;;;;;;5045040;28;20469;-93
2021/11/30 02:11:28;;;;;;;25.02;10.32;;;3.80;99.90;;;;;;5062102;28;20022;-89
2021/11/30 02:13:55;;;;;;;28.92;11.02;;;3.70;99.90;;;;;;5046663;28;20035;-87
2021/11/30 02:16:21;;;;;;;22.27;10.57;;;3.70;99.90;;;;;;5046934;28;20021;-89
2021/11/30 02:18:48;;;;;;;28.40;11.13;;;3.70;99.90;;;;;;5049198;28;20013;-90
2021/11/30 02:21:14;;;;;;;23.70;11.35;;;3.70;99.90;;;;;;5047819;28;20036;-91
2021/11/30 02:23:49;;;;;;;22.45;11.00;;;3.70;99.90;;;;;;5044997;28;20073;-89
2021/11/30 02:26:16;;;;;;;26.65;10.52;;;3.70;99.90;;;;;;5019228;28;20025;-91
2021/11/30 02:28:48;;;;;;;23.48;12.30;;;3.70;99.90;;;;;;5041684;28;20037;-92
2021/11/30 02:31:19;;;;;;;24.95;11.82;;;3.60;99.90;;;;;;5040589;28;20021;-93
2021/11/30 02:33:46;;;;;;;26.60;12.52;;;3.60;99.90;;;;;;5042915;28;20030;-89
2021/11/30 02:36:25;;;;;;;21.75;10.98;;;3.60;99.90;;;;;;5043738;28;20043;-88
2021/11/30 02:38:53;;;;;;;20.10;11.05;;;3.60;99.90;;;;;;5026265;28;20052;-88
2021/11/30 02:41:23;;;;;;;23.90;10.63;;;3.60;99.90;;;;;;5042216;28;20045;-90
2021/11/30 02:43:50;;;;;;;27.45;13.02;;;3.60;99.90;;;;;;5043510;28;20482;-91
2021/11/30 02:46:46;;;;;;;20.05;11.85;;;3.60;99.90;;;;;;5044853;28;20025;-90
2021/11/30 02:49:22;;;;;;;21.25;12.32;;;3.60;99.90;;;;;;5035983;28;20026;-90
2021/11/30 02:51:51;;;;;;;24.05;12.95;;;3.60;99.90;;;;;;5043430;28;20022;-91
2021/11/30 02:54:21;;;;;;;25.17;14.20;;;3.60;99.90;;;;;;5044207;28;20017;-92
2021/11/30 02:56:53;;;;;;;24.65;14.07;;;3.60;99.90;;;;;;5042011;28;20026;-90
2021/11/30 02:59:19;;;;;;;22.70;13.90;;;3.70;99.90;;;;;;5045246;28;20125;-90
2021/11/30 03:02:13;;;;;;;27.38;16.25;;;3.60;99.90;;;;;;5029516;28;20463;-91
2021/11/30 03:04:51;;;;;;;26.27;15.20;;;3.70;99.90;;;;;;5044750;28;20009;-90
2021/11/30 03:07:43;;;;;;;30.27;17.27;;;3.70;99.90;;;;;;5042620;28;20079;-94
2021/11/30 03:10:14;;;;;;;24.67;17.05;;;3.70;99.90;;;;;;5035734;28;20089;-90
2021/11/30 03:12:40;;;;;;;26.60;17.58;;;3.80;99.90;;;;;;5040826;28;20038;-90
2021/11/30 03:15:21;;;;;;;25.33;17.63;;;3.70;99.90;;;;;;5026719;28;20087;-92
2021/11/30 03:17:50;;;;;;;30.13;20.58;;;3.70;99.90;;;;;;5024662;28;20026;-91
2021/11/30 03:20:18;;;;;;;29.42;22.10;;;3.80;99.90;;;;;;5042427;28;20030;-91
2021/11/30 03:22:47;;;;;;;28.95;22.30;;;3.80;99.90;;;;;;5042251;28;20199;-91
2021/11/30 03:25:18;;;;;;;27.60;20.73;;;3.80;99.90;;;;;;5043449;28;20037;-90
2021/11/30 03:27:46;;;;;;;28.35;22.23;;;3.90;99.90;;;;;;5044943;28;20034;-93
2021/11/30 03:30:15;;;;;;;33.58;24.52;;;4.00;99.90;;;;;;5028451;28;20447;-92
2021/11/30 03:35:25;;;;;;;34.42;24.85;;;4.00;99.90;;;;;;5046374;28;20068;-90
2021/11/30 03:37:51;;;;;;;30.40;25.45;;;4.00;99.90;;;;;;5044849;28;20017;-90
2021/11/30 03:40:17;;;;;;;30.45;25.52;;;4.10;99.90;;;;;;5040893;28;20044;-89
2021/11/30 03:42:43;;;;;;;34.47;26.33;;;4.10;99.90;;;;;;5041772;28;20080;-92
2021/11/30 03:45:09;;;;;;;33.63;26.63;;;4.10;99.90;;;;;;5041555;28;20026;-91
2021/11/30 03:47:39;;;;;;;36.85;28.38;;;4.20;99.90;;;;;;5039715;28;20107;-91
2021/11/30 03:50:05;;;;;;;34.05;27.20;;;4.20;99.90;;;;;;5023001;28;20405;-91
2021/11/30 03:52:31;;;;;;;35.08;26.55;;;4.30;99.90;;;;;;5039884;28;20577;-90
2021/11/30 03:54:56;;;;;;;34.38;27.38;;;4.30;99.90;;;;;;5038408;28;20063;-89
2021/11/30 03:57:22;;;;;;;32.72;27.48;;;4.40;99.90;;;;;;5038840;28;20025;-91
2021/11/30 03:59:51;;;;;;;35.15;27.90;;;4.30;99.90;;;;;;5036900;28;20087;-90
2021/11/30 04:02:16;;;;;;;32.53;26.80;;;4.40;99.90;;;;;;5038253;28;20025;-90
2021/11/30 04:04:45;;;;;;;32.83;25.83;;;4.40;99.90;;;;;;5039681;28;20104;-91
2021/11/30 04:07:11;;;;;;;34.67;27.80;;;4.50;99.90;;;;;;5038351;28;20025;-91
2021/11/30 04:09:36;;;;;;;31.92;26.15;;;4.50;99.90;;;;;;5038412;28;20022;-90
2021/11/30 04:12:07;;;;;;;33.72;26.17;;;4.60;99.90;;;;;;5022264;28;20036;-90
2021/11/30 04:14:33;;;;;;;31.02;25.33;;;4.60;99.90;;;;;;5030267;28;20029;-90
2021/11/30 04:16:59;;;;;;;29.52;25.10;;;4.70;99.90;;;;;;5042032;28;20028;-90
2021/11/30 04:19:24;;;;;;;27.40;21.90;;;4.80;99.90;;;;;;5041256;28;20033;-90
2021/11/30 04:21:50;;;;;;;24.52;21.77;;;4.90;99.90;;;;;;5041297;28;20029;-92
2021/11/30 04:24:18;;;;;;;24.00;19.98;;;4.90;99.90;;;;;;5055346;28;20049;-90
2021/11/30 04:26:44;;;;;;;22.50;19.10;;;5.10;99.90;;;;;;5059667;28;20017;-92
2021/11/30 04:29:10;;;;;;;19.17;17.13;;;5.20;99.90;;;;;;5060043;28;20021;-90
2021/11/30 04:31:36;;;;;;;17.83;15.93;;;5.30;99.90;;;;;;5058926;28;20013;-90
2021/11/30 04:34:03;;;;;;;21.58;16.25;;;5.30;99.90;;;;;;5058994;28;20001;-91
2021/11/30 04:36:30;;;;;;;18.90;16.92;;;5.40;99.90;;;;;;5059570;28;20030;-91
2021/11/30 04:38:56;;;;;;;16.38;14.65;;;5.50;99.90;;;;;;5058756;28;20033;-92
2021/11/30 04:41:25;;;;;;;17.00;14.70;;;5.50;99.90;;;;;;5058416;28;20021;-92
2021/11/30 04:43:52;;;;;;;17.58;14.82;;;5.60;99.90;;;;;;5060442;28;20036;-92
2021/11/30 04:48:52;;;;;;;15.63;13.95;;;5.70;99.90;;;;;;5060446;28;20531;-92
2021/11/30 04:51:18;;;;;;;15.32;13.73;;;5.80;99.90;;;;;;5061058;28;20037;-92
2021/11/30 04:53:46;;;;;;;15.18;13.40;;;5.80;99.90;;;;;;5043558;28;20029;-93
2021/11/30 04:56:14;;;;;;;17.30;14.02;;;5.80;99.90;;;;;;5059605;28;20029;-94
2021/11/30 04:58:40;;;;;;;14.10;12.60;;;5.90;99.90;;;;;;5071167;28;20020;-92
2021/11/30 05:01:06;;;;;;;13.82;12.30;;;5.90;99.90;;;;;;5067781;28;20455;-92
2021/11/30 05:03:33;;;;;;;14.07;12.48;;;5.90;99.90;;;;;;5062457;28;20021;-92
2021/11/30 05:05:59;;;;;;;14.10;12.60;;;6.00;99.90;;;;;;5058224;28;20044;-91
2021/11/30 05:08:25;;;;;;;15.25;12.60;;;6.00;99.90;;;;;;5059833;28;20021;-92
2021/11/30 05:10:51;;;;;;;13.00;11.70;;;6.10;99.90;;;;;;5063831;28;20017;-93
2021/11/30 05:13:17;;;;;;;14.02;12.05;;;6.10;99.90;;;;;;5068034;28;20045;-92
2021/11/30 05:15:43;;;;;;;13.88;11.93;;;6.20;99.90;;;;;;5068982;28;20025;-92
2021/11/30 05:18:08;;;;;;;13.23;11.82;;;6.20;99.90;;;;;;5069319;28;20049;-92
2021/11/30 05:20:35;;;;;;;13.93;11.27;;;6.20;99.90;;;;;;5077885;28;20026;-93
2021/11/30 05:23:01;;;;;;;13.32;11.55;;;6.30;99.90;;;;;;5078140;28;20059;-93
2021/11/30 05:25:37;;;;;;;12.68;11.32;;;6.30;99.90;;;;;;5078138;28;20013;-92
2021/11/30 05:28:05;;;;;;;13.13;11.45;;;6.30;99.90;;;;;;5078429;28;20013;-91
2021/11/30 05:30:37;;;;;;;12.20;10.13;;;6.40;99.90;;;;;;5078302;28;20005;-92
2021/11/30 05:33:10;;;;;;;13.93;10.70;;;6.40;99.90;;;;;;5077465;28;20036;-93
2021/11/30 05:35:38;;;;;;;11.23;10.00;;;6.50;99.90;;;;;;5077769;28;20102;-95
2021/11/30 05:46:07;;;;;;;10.70;9.55;;;6.50;99.90;;;;;;5055416;28;20048;-92
2021/11/30 05:48:50;;;;;;;11.07;9.63;;;6.60;99.90;;;;;;5040708;28;20061;-93
2021/11/30 05:51:30;;;;;;;10.27;9.13;;;6.60;99.90;;;;;;5045525;28;20031;-94
2021/11/30 05:54:09;;;;;;;11.20;9.75;;;6.60;99.90;;;;;;5052493;28;20029;-91
2021/11/30 05:57:09;;;;;;;;;;;;;;;;;;;;;
2021/11/30 05:59:39;;;;;;;11.02;9.57;;;6.80;99.90;;;;;;5055747;28;20029;-93
2021/11/30 06:02:16;;;;;;;10.82;9.70;;;6.80;99.90;;;;;;5038784;28;20112;-92
2021/11/30 06:07:39;;;;;;;11.98;9.77;;;6.90;99.90;;;;;;5059864;28;20029;-92
2021/11/30 06:10:13;;;;;;;12.48;10.50;;;6.90;99.90;;;;;;5047459;28;20037;-92
2021/11/30 06:12:47;;;;;;;12.30;10.25;;;6.90;99.90;;;;;;5022307;28;20036;-92
2021/11/30 06:15:28;;;;;;;12.43;10.60;;;7.00;99.90;;;;;;5004283;28;20038;-90
2021/11/30 06:18:01;;;;;;;12.75;10.80;;;7.00;99.90;;;;;;5039390;28;20034;-92
2021/11/30 06:20:29;;;;;;;12.27;9.97;;;7.00;99.90;;;;;;5025058;28;20128;-92
2021/11/30 06:23:01;;;;;;;13.32;10.88;;;7.00;99.90;;;;;;5021251;28;20040;-90
2021/11/30 06:25:47;;;;;;;13.05;11.48;;;7.10;99.90;;;;;;5045853;28;20016;-91
2021/11/30 06:28:13;;;;;;;13.40;11.48;;;7.10;99.90;;;;;;5030724;28;20034;-92
2021/11/30 06:30:51;;;;;;;13.25;11.40;;;7.10;99.90;;;;;;5029429;28;20045;-93
2021/11/30 06:33:46;;;;;;;12.05;10.02;;;7.20;99.90;;;;;;5035226;28;20033;-92
2021/11/30 06:36:27;;;;;;;13.77;11.80;;;7.20;99.90;;;;;;5061971;28;20028;-93
2021/11/30 06:38:59;;;;;;;12.82;10.93;;;7.20;99.90;;;;;;5057581;28;20037;-93
2021/11/30 06:41:33;;;;;;;13.30;10.77;;;7.30;99.90;;;;;;5043321;28;20044;-92
2021/11/30 06:44:13;;;;;;;11.98;9.55;;;7.40;99.90;;;;;;5000236;28;20050;-93
2021/11/30 06:46:51;;;;;;;13.23;10.43;;;7.50;99.90;;;;;;4984666;28;20558;-93
2021/11/30 06:49:17;;;;;;;11.00;8.40;;;7.50;99.90;;;;;;4984625;28;20046;-91
2021/11/30 06:51:52;;;;;;;9.82;8.35;;;7.60;99.90;;;;;;5001211;28;20060;-94
2021/11/30 06:54:43;;;;;;;11.20;8.00;;;7.70;99.90;;;;;;5001518;28;20054;-93
2021/11/30 06:57:13;;;;;;;9.93;7.53;;;7.80;99.90;;;;;;5019672;28;20014;-92
2021/11/30 07:00:16;;;;;;;10.23;7.65;;;7.90;99.90;;;;;;4989055;28;20049;-94
2021/11/30 07:02:47;;;;;;;11.32;7.30;;;8.00;99.90;;;;;;4989015;28;20040;-93
2021/11/30 07:05:24;;;;;;;9.13;7.80;;;8.00;99.90;;;;;;4991454;28;20109;-93
2021/11/30 07:13:52;;;;;;;9.05;7.20;;;8.10;99.90;;;;;;4927851;28;20128;-93
2021/11/30 07:16:30;;;;;;;10.27;7.43;;;8.20;99.90;;;;;;4963413;29;20399;-92
2021/11/30 07:19:01;;;;;;;9.88;7.70;;;8.20;99.90;;;;;;4969991;28;20147;-93
2021/11/30 07:24:21;;;;;;;11.43;8.90;;;8.20;99.90;;;;;;4975891;28;20030;-94
2021/11/30 07:26:49;;;;;;;13.75;9.30;;;8.20;99.90;;;;;;5045539;28;20029;-94
2021/11/30 07:29:20;;;;;;;10.57;8.20;;;8.30;99.90;;;;;;5045216;28;20540;-92
2021/11/30 07:32:07;;;;;;;12.25;8.68;;;8.20;99.90;;;;;;5047901;28;20021;-94
2021/11/30 07:34:35;;;;;;;14.40;10.02;;;8.30;99.90;;;;;;5062726;28;20473;-92
2021/11/30 07:37:03;;;;;;;14.57;9.75;;;8.30;99.90;;;;;;5043434;28;20028;-94
2021/11/30 07:39:29;;;;;;;17.05;10.27;;;8.40;99.90;;;;;;5037245;28;20448;-94
2021/11/30 07:42:05;;;;;;;14.05;10.15;;;8.40;99.90;;;;;;5038346;28;20033;-94
2021/11/30 07:44:35;;;;;;;15.95;11.00;;;8.40;99.90;;;;;;5049556;28;20055;-94
2021/11/30 07:47:39;;;;;;;15.40;10.75;;;8.40;99.90;;;;;;5027171;28;20071;-93
2021/11/30 07:49:57;;;;;;;15.10;9.95;;;8.50;99.90;;;;;;5027084;28;20101;-94
2021/11/30 07:52:26;;;;;;;14.68;9.93;;;8.40;99.90;;;;;;5039669;28;20499;-92
2021/11/30 07:55:04;;;;;;;16.30;10.20;;;8.50;99.90;;;;;;5038925;28;20024;-93
2021/11/30 07:57:50;;;;;;;;;;;;;;;;;;;;;
2021/11/30 08:01:01;;;;;;;19.48;10.48;;;8.60;99.90;;;;;;5059447;28;20132;-93
2021/11/30 08:03:36;;;;;;;17.38;9.93;;;8.50;99.90;;;;;;5025201;28;20103;-94
2021/11/30 08:06:04;;;;;;;16.27;10.00;;;8.60;99.90;;;;;;5038971;28;20029;-94
2021/11/30 08:08:48;;;;;;;15.40;9.32;;;8.60;99.90;;;;;;5031579;28;20033;-93
2021/11/30 08:11:18;;;;;;;;;;;8.60;99.90;;;;;;5030821;28;20025;-92
2021/11/30 08:13:49;;;;;;;13.93;8.93;;;8.60;99.90;;;;;;5032772;28;19909;-92
2021/11/30 08:16:32;;;;;;;16.58;9.27;;;8.60;99.90;;;;;;5019796;28;20457;-95
2021/11/30 08:19:01;;;;;;;16.00;8.90;;;8.60;99.90;;;;;;5026573;28;20044;-93
2021/11/30 08:21:36;;;;;;;15.65;9.13;;;8.60;99.90;;;;;;5062664;28;20092;-93
2021/11/30 08:24:13;;;;;;;;;;;;;;;;;;;;;
2021/11/30 08:26:48;;;;;;;14.02;8.00;;;8.70;99.90;;;;;;5057489;28;20100;-92
2021/11/30 08:29:45;;;;;;;16.10;8.45;;;8.70;99.90;;;;;;5039671;28;20103;-94
2021/11/30 08:32:25;;;;;;;;;;;;;;;;;;;;;
2021/11/30 08:35:17;;;;;;;;;;;;;;;;;;;;;
2021/11/30 08:38:07;;;;;;;15.38;7.57;;;8.70;99.90;;;;;;5024907;28;20090;-94
2021/11/30 08:41:02;;;;;;;;;;;;;;;;;;;;;
2021/11/30 08:43:29;;;;;;;13.43;7.30;;;8.80;99.90;;;;;;5013529;28;20045;-93
2021/11/30 08:46:42;;;;;;;15.02;8.07;;;8.80;99.90;;;;;;5011812;28;20529;-94
2021/11/30 08:49:22;;;;;;;;;;;;;;;;;;;;;
2021/11/30 08:52:17;;;;;;;13.70;7.60;;;8.80;99.90;;;;;;5020771;28;20124;-94
2021/11/30 08:54:55;;;;;;;;;;;;;;;;;;;;;
2021/11/30 08:57:33;;;;;;;13.05;7.63;;;8.90;99.90;;;;;;4992353;28;20128;-94
2021/11/30 09:00:03;;;;;;;16.95;7.65;;;8.90;99.90;;;;;;5013616;28;20041;-93
2021/11/30 09:02:43;;;;;;;15.68;7.10;;;8.90;99.90;;;;;;5038701;28;20071;-94
2021/11/30 09:05:35;;;;;;;9.73;6.63;;;8.90;99.90;;;;;;5022290;28;20029;-94
2021/11/30 09:08:20;;;;;;;13.25;6.70;;;9.00;99.90;;;;;;5053177;28;20061;-93
2021/11/30 09:11:22;;;;;;;;;;;;;;;;;;;;;
2021/11/30 09:14:31;;;;;;;9.40;6.10;;;9.00;99.90;;;;;;5048913;28;20107;-93
2021/11/30 09:17:12;;;;;;;10.38;5.90;;;9.00;99.90;;;;;;4995988;28;20065;-95
2021/11/30 09:20:03;;;;;;;11.43;5.70;;;9.10;99.90;;;;;;5025369;28;20044;-95
2021/11/30 09:23:02;;;;;;;8.27;4.97;;;9.10;99.90;;;;;;5025445;28;20032;-95
2021/11/30 09:28:24;;;;;;;10.65;5.30;;;9.10;99.90;;;;;;5059758;28;20547;-94
2021/11/30 09:30:58;;;;;;;9.55;4.50;;;9.10;99.90;;;;;;5039876;28;20089;-93
2021/11/30 09:33:44;;;;;;;8.45;4.53;;;9.10;99.90;;;;;;5047741;28;20004;-94
2021/11/30 09:36:44;;;;;;;8.00;4.20;;;9.20;99.90;;;;;;5060018;28;20093;-94
2021/11/30 09:39:24;;;;;;;8.98;3.85;;;9.20;99.90;;;;;;5052819;28;20042;-95
2021/11/30 09:42:19;;;;;;;10.05;4.78;;;9.20;99.90;;;;;;5032661;28;20067;-94
2021/11/30 09:44:47;;;;;;;6.70;3.97;;;9.20;99.90;;;;;;5046656;28;20048;-94
2021/11/30 09:51:35;;;;;;;10.18;4.80;;;9.20;99.90;;;;;;5037665;28;20102;-94
2021/11/30 10:11:16;;;;;;;;;;;;;;;;;;;;;
2021/11/30 10:17:24;;;;;;;5.15;1.98;;;9.30;99.90;;;;;;5057656;28;20311;-91
2021/11/30 10:19:57;;;;;;;3.85;0.90;;;9.30;99.90;;;;;;5042500;28;20600;-91
2021/11/30 10:22:40;;;;;;;;;;;9.20;99.90;;;;;;5066309;28;20450;-92
2021/11/30 10:25:29;;;;;;;1.48;0.60;;;9.00;99.90;;;;;;5066237;28;19971;-92
2021/11/30 10:28:01;;;;;;;1.15;0.50;;;9.00;99.90;;;;;;5046648;28;20033;-93
2021/11/30 10:30:29;;;;;;;0.80;0.40;;;9.00;99.90;;;;;;5045621;28;20051;-93
2021/11/30 10:32:58;;;;;;;0.50;0.38;;;8.90;99.90;;;;;;5046166;28;20605;-92
2021/11/30 10:35:27;;;;;;;0.70;0.45;;;9.00;99.90;;;;;;5048351;28;20038;-95
2021/11/30 10:37:53;;;;;;;2.15;0.32;;;8.90;99.90;;;;;;5046704;28;20030;-92
2021/11/30 10:40:22;;;;;;;0.52;0.35;;;8.90;99.90;;;;;;5041684;28;20041;-88
2021/11/30 10:42:57;;;;;;;0.95;0.50;;;8.90;99.90;;;;;;5042844;28;20037;-92
2021/11/30 10:45:34;;;;;;;0.90;0.50;;;9.00;99.90;;;;;;5042125;28;20046;-91
2021/11/30 10:48:22;;;;;;;3.13;0.70;;;9.00;99.90;;;;;;5043481;28;20044;-93
2021/11/30 10:50:50;;;;;;;0.55;0.40;;;9.00;99.90;;;;;;5046109;28;20056;-91
2021/11/30 10:53:21;;;;;;;1.42;0.70;;;9.00;99.90;;;;;;5050809;28;20037;-92
2021/11/30 10:55:49;;;;;;;1.40;0.60;;;9.00;99.90;;;;;;5043882;28;20034;-91
2021/11/30 10:58:24;;;;;;;0.95;0.60;;;9.00;99.90;;;;;;5067012;28;20365;-92
2021/11/30 11:00:50;;;;;;;1.17;0.70;;;8.90;99.90;;;;;;5032739;28;20034;-93
2021/11/30 11:03:20;;;;;;;1.48;0.60;;;8.80;99.90;;;;;;5048175;28;20613;-92
2021/11/30 11:08:55;;;;;;;0.95;0.65;;;8.80;99.90;;;;;;5082674;28;20031;-93
2021/11/30 11:11:23;;;;;;;3.00;0.70;;;8.80;99.90;;;;;;5042784;28;20082;-92
2021/11/30 11:13:49;;;;;;;1.27;0.55;;;8.80;99.90;;;;;;5042377;28;20124;-94
2021/11/30 11:16:34;;;;;;;5.10;1.00;;;8.70;99.90;;;;;;5032587;28;20041;-94
2021/11/30 11:19:05;;;;;;;3.05;0.70;;;8.70;99.90;;;;;;5030947;28;20028;-95
2021/11/30 11:21:35;;;;;;;3.75;0.80;;;8.70;99.90;;;;;;5043452;28;20363;-94
2021/11/30 11:24:25;;;;;;;4.90;0.98;;;8.80;99.90;;;;;;5038957;28;20105;-93
2021/11/30 11:26:59;;;;;;;5.72;1.00;;;8.80;99.90;;;;;;5023298;28;20094;-94
2021/11/30 11:29:29;;;;;;;2.42;0.70;;;8.70;99.90;;;;;;5029765;28;20029;-93
2021/11/30 11:32:01;;;;;;;3.30;0.70;;;8.70;99.90;;;;;;5042220;28;20048;-92
2021/11/30 11:34:29;;;;;;;3.55;0.98;;;8.80;99.90;;;;;;5026452;28;20033;-92
2021/11/30 11:36:58;;;;;;;2.97;0.70;;;8.70;99.90;;;;;;5038234;28;20487;-92
2021/11/30 11:39:25;;;;;;;6.00;0.90;;;8.70;99.90;;;;;;5023435;28;20064;-94
2021/11/30 11:41:57;;;;;;;2.47;0.90;;;8.70;99.90;;;;;;5023351;28;20060;-96
2021/11/30 11:44:25;;;;;;;4.50;0.80;;;8.70;99.90;;;;;;5009722;28;20037;-93
2021/11/30 11:47:00;;;;;;;6.00;0.88;;;8.70;99.90;;;;;;5026636;28;20021;-92
2021/11/30 11:49:27;;;;;;;3.78;0.77;;;8.60;99.90;;;;;;5049436;28;20021;-92
2021/11/30 11:51:56;;;;;;;4.22;0.80;;;8.60;99.90;;;;;;5063684;28;20040;-91
2021/11/30 11:54:32;;;;;;;1.55;0.65;;;8.60;99.90;;;;;;5048018;28;20025;-93
2021/11/30 11:57:10;;;;;;;2.65;1.00;;;8.70;99.90;;;;;;5041604;28;20048;-92
2021/11/30 11:59:47;;;;;;;4.25;0.77;;;8.60;99.90;;;;;;5028243;28;20061;-93
2021/11/30 12:02:20;;;;;;;2.25;0.77;;;8.70;99.90;;;;;;5024973;28;20030;-93
2021/11/30 12:04:51;;;;;;;3.85;1.02;;;8.60;99.90;;;;;;5031708;28;20034;-93
2021/11/30 12:07:18;;;;;;;5.10;1.00;;;8.70;99.90;;;;;;5048517;28;20545;-91
2021/11/30 12:09:44;;;;;;;5.38;1.20;;;8.70;99.90;;;;;;5042380;28;20086;-91
2021/11/30 12:12:10;;;;;;;1.85;0.88;;;8.70;99.90;;;;;;5029057;28;20036;-91
2021/11/30 12:14:37;;;;;;;2.75;0.88;;;8.60;99.90;;;;;;5021949;28;20041;-93
2021/11/30 12:17:15;;;;;;;2.83;1.15;;;8.70;99.90;;;;;;5022036;28;20037;-91
2021/11/30 12:19:44;;;;;;;2.20;0.75;;;8.70;99.90;;;;;;5019858;28;20042;-92
2021/11/30 12:22:12;;;;;;;2.50;0.90;;;8.60;99.90;;;;;;5012640;28;20038;-91
2021/11/30 12:24:47;;;;;;;3.90;1.27;;;8.70;99.90;;;;;;5020052;28;20025;-91
2021/11/30 12:27:30;;;;;;;3.10;1.15;;;8.70;99.90;;;;;;5004663;28;20045;-90
2021/11/30 12:29:56;;;;;;;4.53;1.17;;;8.60;99.90;;;;;;5002857;28;20080;-90
2021/11/30 12:32:31;;;;;;;2.20;0.93;;;8.60;99.90;;;;;;5003478;28;20030;-92
2021/11/30 12:35:00;;;;;;;4.55;1.00;;;8.70;99.90;;;;;;5004426;28;20088;-91
2021/11/30 12:37:29;;;;;;;3.30;0.80;;;8.70;99.90;;;;;;5027648;28;20021;-90
2021/11/30 12:40:04;;;;;;;3.75;1.00;;;8.70;99.90;;;;;;5025277;28;20073;-91
2021/11/30 12:42:51;;;;;;;3.65;0.95;;;8.70;99.90;;;;;;5024833;28;20117;-89
2021/11/30 12:45:36;;;;;;;4.95;1.00;;;8.70;99.90;;;;;;5023996;28;20091;-90
2021/11/30 12:48:35;;;;;;;2.60;0.93;;;8.70;99.90;;;;;;5021735;28;20044;-91
2021/11/30 12:51:33;;;;;;;3.15;0.75;;;8.70;99.90;;;;;;5021558;28;20033;-93
2021/11/30 12:54:00;;;;;;;4.55;1.05;;;8.70;99.90;;;;;;5023050;28;20037;-95
2021/11/30 12:56:46;;;;;;;2.85;1.00;;;8.70;99.90;;;;;;5026685;28;20032;-94
2021/11/30 12:59:15;;;;;;;1.65;0.70;;;8.70;99.90;;;;;;5019434;28;20128;-91
2021/11/30 13:01:41;;;;;;;1.38;0.70;;;8.70;99.90;;;;;;5028654;28;20029;-89
2021/11/30 13:04:29;;;;;;;3.13;0.80;;;8.70;99.90;;;;;;5012090;28;20151;-89
2021/11/30 13:07:05;;;;;;;2.78;0.80;;;8.70;99.90;;;;;;5021661;28;20033;-92
2021/11/30 13:09:38;;;;;;;2.25;0.80;;;8.70;99.90;;;;;;5040899;28;20044;-91
2021/11/30 13:12:05;;;;;;;1.88;0.85;;;8.70;99.90;;;;;;5043445;28;20038;-91
2021/11/30 13:14:31;;;;;;;1.65;0.80;;;8.70;99.90;;;;;;5037373;28;20033;-90
2021/11/30 13:16:56;;;;;;;3.10;1.30;;;8.70;99.90;;;;;;5041024;28;20050;-92
2021/11/30 13:19:31;;;;;;;3.30;1.50;;;8.70;99.90;;;;;;5041641;28;20030;-91
2021/11/30 13:21:58;;;;;;;3.47;1.20;;;8.80;99.90;;;;;;5027995;28;20029;-90
2021/11/30 13:24:36;;;;;;;2.22;1.35;;;8.80;99.90;;;;;;5021666;28;20041;-92
2021/11/30 13:27:12;;;;;;;1.92;1.20;;;8.80;99.90;;;;;;5021480;28;20014;-89
2021/11/30 13:29:53;;;;;;;2.85;1.42;;;8.80;99.90;;;;;;5021019;28;20084;-94
2021/11/30 13:32:30;;;;;;;2.47;1.17;;;8.80;99.90;;;;;;5070957;23;20037;-95
2021/11/30 13:35:22;;;;;;;2.30;1.55;;;8.80;99.90;;;;;;5074462;28;20088;-94
2021/11/30 13:37:54;;;;;;;3.35;2.30;;;8.90;99.90;;;;;;5067985;28;20033;-95
2021/11/30 13:40:47;;;;;;;3.53;2.60;;;8.80;99.90;;;;;;5075176;28;20028;-94
2021/11/30 13:43:15;;;;;;;4.10;2.65;;;8.90;99.90;;;;;;5062768;28;20048;-92
2021/11/30 13:45:54;;;;;;;3.25;2.10;;;8.80;99.90;;;;;;5066452;28;20028;-92
2021/11/30 13:48:29;;;;;;;4.13;1.88;;;8.80;99.90;;;;;;5054849;28;20102;-93
2021/11/30 13:50:57;;;;;;;2.88;1.85;;;8.80;99.90;;;;;;5062475;28;20111;-90
2021/11/30 13:53:26;;;;;;;3.05;2.08;;;8.80;99.90;;;;;;5044989;28;20036;-90
2021/11/30 13:55:55;;;;;;;2.67;1.70;;;8.80;99.90;;;;;;5046142;28;20414;-91
2021/11/30 13:58:49;;;;;;;2.00;1.52;;;8.80;99.90;;;;;;5046093;28;20095;-89
2021/11/30 14:01:27;;;;;;;2.28;1.38;;;8.80;99.90;;;;;;5031151;28;20037;-89
2021/11/30 14:03:56;;;;;;;3.45;1.40;;;8.70;99.90;;;;;;5047923;28;20033;-90
2021/11/30 14:06:31;;;;;;;3.63;1.58;;;8.80;99.90;;;;;;5047875;28;20044;-93
2021/11/30 14:09:05;;;;;;;2.25;1.50;;;8.70;99.90;;;;;;5047078;28;20693;-92
2021/11/30 14:11:31;;;;;;;2.40;1.52;;;8.70;99.90;;;;;;5032008;28;20071;-89
2021/11/30 14:13:57;;;;;;;1.92;1.40;;;8.70;99.90;;;;;;5047812;28;20529;-92
2021/11/30 14:16:25;;;;;;;3.45;1.50;;;8.60;99.90;;;;;;5050609;28;20510;-92
2021/11/30 14:18:57;;;;;;;2.15;1.55;;;8.70;99.90;;;;;;5049101;28;20029;-92
2021/11/30 14:21:26;;;;;;;2.30;1.60;;;8.70;99.90;;;;;;5057240;28;20032;-92
2021/11/30 14:24:14;;;;;;;3.10;1.50;;;8.70;99.90;;;;;;5069564;28;20033;-92
2021/11/30 14:26:43;;;;;;;2.03;1.63;;;8.70;99.90;;;;;;5054243;28;20017;-92
2021/11/30 14:29:36;;;;;;;2.45;1.73;;;8.70;99.90;;;;;;5077730;28;20059;-92
2021/11/30 14:32:06;;;;;;;1.88;1.42;;;8.70;99.90;;;;;;5058211;28;20112;-91
2021/11/30 14:34:37;;;;;;;4.97;1.92;;;8.60;99.90;;;;;;5051596;28;20057;-92
2021/11/30 14:37:49;;;;;;;2.08;1.48;;;8.60;99.90;;;;;;5033170;28;20101;-90
2021/11/30 14:40:19;;;;;;;2.53;1.80;;;8.70;99.90;;;;;;4951442;29;20050;-92
2021/11/30 14:43:04;;;;;;;5.18;2.05;;;8.60;99.90;;;;;;4971580;28;20325;-91
2021/11/30 14:45:33;;;;;;;2.78;1.95;;;8.60;99.90;;;;;;5029915;28;20397;-90
2021/11/30 14:48:08;;;;;;;2.22;1.50;;;8.60;99.90;;;;;;5062822;28;20036;-90
2021/11/30 14:50:46;;;;;;;2.08;1.48;;;8.60;99.90;;;;;;5043314;28;20479;-91
2021/11/30 14:53:25;;;;;;;2.30;1.42;;;8.60;99.90;;;;;;5042622;28;20040;-90
2021/11/30 14:55:57;;;;;;;2.30;1.55;;;8.60;99.90;;;;;;5039102;28;20073;-89
2021/11/30 14:58:31;;;;;;;3.38;1.45;;;8.60;99.90;;;;;;5044489;28;20032;-88
2021/11/30 15:01:01;;;;;;;2.75;2.00;;;8.60;99.90;;;;;;5041326;28;20040;-89
2021/11/30 15:04:00;;;;;;;3.08;1.80;;;8.60;99.90;;;;;;5049800;28;20067;-91
2021/11/30 15:06:39;;;;;;;4.00;1.90;;;8.50;99.90;;;;;;4991218;28;20581;-91
2021/11/30 15:09:16;;;;;;;3.45;1.58;;;8.60;99.90;;;;;;5032647;28;20035;-91
2021/11/30 15:11:51;;;;;;;3.55;2.00;;;8.50;99.90;;;;;;5068258;28;20037;-88
2021/11/30 15:14:19;;;;;;;2.20;1.50;;;8.60;99.90;;;;;;5043246;28;20098;-91
2021/11/30 15:16:56;;;;;;;3.65;1.58;;;8.60;99.90;;;;;;5042616;28;20048;-92
2021/11/30 15:19:28;;;;;;;2.10;1.33;;;8.60;99.90;;;;;;5043320;28;20076;-92
2021/11/30 15:22:04;;;;;;;3.90;1.58;;;8.60;99.90;;;;;;5047387;28;20151;-92
2021/11/30 15:24:41;;;;;;;2.13;1.50;;;8.60;99.90;;;;;;5043511;28;20029;-92
2021/11/30 15:27:21;;;;;;;2.58;1.60;;;8.50;99.90;;;;;;5039689;28;20033;-93